createdAt,value
2018-08-30T00:01:03.687Z,99942.00
2018-08-30T00:03:34.530Z,99940.00
2018-08-30T00:06:05.104Z,99941.00
2018-08-30T00:08:34.692Z,99939.00
2018-08-30T00:11:03.792Z,99941.00
2018-08-30T00:13:33.302Z,99942.00
2018-08-30T00:16:03.164Z,99944.00
2018-08-30T00:18:32.448Z,99951.00
2018-08-30T00:21:01.464Z,99956.00
2018-08-30T00:23:31.063Z,99952.00
2018-08-30T00:26:00.489Z,99953.00
2018-08-30T00:28:29.905Z,99952.00
2018-08-30T00:30:59.128Z,99952.00
2018-08-30T00:33:28.301Z,99955.00
2018-08-30T00:35:57.407Z,99954.00
2018-08-30T00:38:26.515Z,99959.00
2018-08-30T00:40:55.700Z,99967.00
2018-08-30T00:43:24.771Z,99969.00
2018-08-30T00:45:53.924Z,99972.00
2018-08-30T00:48:23.072Z,99978.00
2018-08-30T00:50:52.182Z,99976.00
2018-08-30T00:53:21.301Z,99972.00
2018-08-30T00:55:51.077Z,99976.00
2018-08-30T00:58:20.140Z,99975.00
2018-08-30T01:00:49.188Z,99982.00
2018-08-30T01:03:18.270Z,99985.00
2018-08-30T01:05:47.373Z,99987.00
2018-08-30T01:08:16.560Z,99989.00
2018-08-30T01:10:45.740Z,99995.00
2018-08-30T01:13:17.395Z,99996.00
2018-08-30T01:15:46.766Z,99996.00
2018-08-30T01:18:16.009Z,100002.00
2018-08-30T01:20:45.180Z,100005.00
2018-08-30T01:23:14.333Z,100003.00
2018-08-30T01:25:44.250Z,100007.00
2018-08-30T01:28:14.620Z,100009.00
2018-08-30T01:30:43.895Z,100014.00
2018-08-30T01:33:12.993Z,100014.00
2018-08-30T01:35:42.236Z,100010.00
2018-08-30T01:38:11.395Z,100010.00
2018-08-30T01:40:40.561Z,100014.00
2018-08-30T01:43:09.985Z,100010.00
2018-08-30T01:45:39.211Z,100017.00
2018-08-30T01:48:08.682Z,100017.00
2018-08-30T01:50:37.822Z,100017.00
2018-08-30T01:53:07.128Z,100016.00
2018-08-30T01:55:36.816Z,100014.00
2018-08-30T01:58:05.901Z,100019.00
2018-08-30T02:00:35.093Z,100017.00
2018-08-30T02:03:04.164Z,100021.00
2018-08-30T02:05:33.260Z,100017.00
2018-08-30T02:08:02.445Z,100014.00
2018-08-30T02:10:31.556Z,100017.00
2018-08-30T02:13:00.647Z,100014.00
2018-08-30T02:15:29.696Z,100012.00
2018-08-30T02:17:58.784Z,100025.00
2018-08-30T02:20:27.845Z,100022.00
2018-08-30T02:22:56.956Z,100023.00
2018-08-30T02:25:26.117Z,100024.00
2018-08-30T02:27:55.225Z,100023.00
2018-08-30T02:30:24.639Z,100021.00
2018-08-30T02:32:53.740Z,100023.00
2018-08-30T02:35:22.829Z,100024.00
2018-08-30T02:37:51.924Z,100023.00
2018-08-30T02:40:21.973Z,100028.00
2018-08-30T02:42:51.074Z,100030.00
2018-08-30T02:45:20.152Z,100030.00
2018-08-30T02:47:49.235Z,100030.00
2018-08-30T02:50:18.344Z,100030.00
2018-08-30T02:52:47.422Z,100033.00
2018-08-30T02:55:16.482Z,100036.00
2018-08-30T02:57:45.614Z,100033.00
2018-08-30T03:00:14.985Z,100037.00
2018-08-30T03:02:44.197Z,100042.00
2018-08-30T03:05:13.469Z,100045.00
2018-08-30T03:07:42.629Z,100042.00
2018-08-30T03:10:11.897Z,100042.00
2018-08-30T03:12:41.016Z,100043.00
2018-08-30T03:15:12.980Z,100046.00
2018-08-30T03:17:42.084Z,100045.00
2018-08-30T03:20:14.015Z,100051.00
2018-08-30T03:22:43.435Z,100058.00
2018-08-30T03:25:12.725Z,100058.00
2018-08-30T03:27:41.881Z,100056.00
2018-08-30T03:30:11.281Z,100059.00
2018-08-30T03:32:40.403Z,100065.00
2018-08-30T03:35:09.557Z,100067.00
2018-08-30T03:37:38.733Z,100068.00
2018-08-30T03:40:07.864Z,100072.00
2018-08-30T03:42:37.184Z,100072.00
2018-08-30T03:45:06.334Z,100074.00
2018-08-30T03:47:35.996Z,100080.00
2018-08-30T03:50:05.148Z,100078.00
2018-08-30T03:52:34.256Z,100080.00
2018-08-30T03:55:04.128Z,100082.00
2018-08-30T03:57:33.419Z,100083.00
2018-08-30T04:00:02.521Z,100089.00
2018-08-30T04:02:31.634Z,100090.00
2018-08-30T04:05:00.780Z,100092.00
2018-08-30T04:07:29.859Z,100091.00
2018-08-30T04:09:59.012Z,100093.00
2018-08-30T04:12:28.174Z,100087.00
2018-08-30T04:14:57.377Z,100095.00
2018-08-30T04:17:26.487Z,100091.00
2018-08-30T04:19:55.675Z,100093.00
2018-08-30T04:22:24.758Z,100096.00
2018-08-30T04:24:53.970Z,100101.00
2018-08-30T04:27:23.149Z,100102.00
2018-08-30T04:29:52.325Z,100095.00
2018-08-30T04:32:21.444Z,100097.00
2018-08-30T04:34:50.778Z,100099.00
2018-08-30T04:37:19.915Z,100094.00
2018-08-30T04:39:49.113Z,100095.00
2018-08-30T04:42:18.275Z,100100.00
2018-08-30T04:44:47.540Z,100103.00
2018-08-30T04:47:16.810Z,100100.00
2018-08-30T04:49:46.190Z,100102.00
2018-08-30T04:52:15.433Z,100103.00
2018-08-30T04:54:44.620Z,100107.00
2018-08-30T04:57:14.572Z,100108.00
2018-08-30T04:59:44.197Z,100117.00
2018-08-30T05:02:13.556Z,100120.00
2018-08-30T05:04:43.056Z,100123.00
2018-08-30T05:07:12.368Z,100124.00
2018-08-30T05:09:41.603Z,100128.00
2018-08-30T05:12:17.500Z,100131.00
2018-08-30T05:14:46.705Z,100135.00
2018-08-30T05:17:15.859Z,100139.00
2018-08-30T05:19:45.161Z,100145.00
2018-08-30T05:22:14.560Z,100141.00
2018-08-30T05:24:44.274Z,100145.00
2018-08-30T05:27:13.810Z,100150.00
2018-08-30T05:29:43.057Z,100145.00
2018-08-30T05:32:12.451Z,100148.00
2018-08-30T05:34:42.107Z,100145.00
2018-08-30T05:37:12.097Z,100147.00
2018-08-30T05:39:41.987Z,100151.00
2018-08-30T05:42:11.397Z,100157.00
2018-08-30T05:44:40.921Z,100155.00
2018-08-30T05:47:10.508Z,100157.00
2018-08-30T05:49:39.793Z,100161.00
2018-08-30T05:52:09.049Z,100169.00
2018-08-30T05:54:38.174Z,100166.00
2018-08-30T05:57:07.629Z,100166.00
2018-08-30T05:59:36.923Z,100173.00
2018-08-30T06:02:06.514Z,100169.00
2018-08-30T06:04:35.730Z,100171.00
2018-08-30T06:07:04.981Z,100172.00
2018-08-30T06:09:34.869Z,100177.00
2018-08-30T06:12:03.968Z,100172.00
2018-08-30T06:14:33.069Z,100181.00
2018-08-30T06:17:02.402Z,100183.00
2018-08-30T06:19:31.645Z,100186.00
2018-08-30T06:22:00.821Z,100186.00
2018-08-30T06:24:30.004Z,100190.00
2018-08-30T06:26:59.499Z,100189.00
2018-08-30T06:29:29.365Z,100194.00
2018-08-30T06:31:58.683Z,100193.00
2018-08-30T06:34:27.818Z,100201.00
2018-08-30T06:36:56.866Z,100196.00
2018-08-30T06:39:26.031Z,100202.00
2018-08-30T06:41:55.303Z,100206.00
2018-08-30T06:44:24.457Z,100208.00
2018-08-30T06:46:53.685Z,100209.00
2018-08-30T06:49:22.855Z,100213.00
2018-08-30T06:51:52.082Z,100210.00
2018-08-30T06:54:21.160Z,100209.00
2018-08-30T06:56:50.290Z,100217.00
2018-08-30T06:59:19.393Z,100219.00
2018-08-30T07:01:48.473Z,100222.00
2018-08-30T07:04:17.807Z,100223.00
2018-08-30T07:06:47.226Z,100223.00
2018-08-30T07:09:16.388Z,100222.00
2018-08-30T07:11:45.610Z,100222.00
2018-08-30T07:14:14.931Z,100225.00
2018-08-30T07:16:44.156Z,100230.00
2018-08-30T07:19:13.395Z,100232.00
2018-08-30T07:21:42.639Z,100239.00
2018-08-30T07:24:11.961Z,100234.00
2018-08-30T07:26:41.213Z,100236.00
2018-08-30T07:29:10.515Z,100237.00
2018-08-30T07:31:39.721Z,100237.00
2018-08-30T07:34:09.066Z,100241.00
2018-08-30T07:36:38.276Z,100247.00
2018-08-30T07:39:11.134Z,100250.00
2018-08-30T07:41:40.838Z,100251.00
2018-08-30T07:44:10.653Z,100247.00
2018-08-30T07:46:39.786Z,100251.00
2018-08-30T07:49:09.880Z,100257.00
2018-08-30T07:51:39.285Z,100256.00
2018-08-30T07:54:09.112Z,100261.00
2018-08-30T07:56:38.366Z,100261.00
2018-08-30T07:59:07.652Z,100265.00
2018-08-30T08:01:36.908Z,100264.00
2018-08-30T08:04:06.220Z,100259.00
2018-08-30T08:06:35.372Z,100265.00
2018-08-30T08:09:07.045Z,100266.00
2018-08-30T08:11:36.185Z,100270.00
2018-08-30T08:14:05.286Z,100274.00
2018-08-30T08:16:34.456Z,100281.00
2018-08-30T08:19:04.264Z,100280.00
2018-08-30T08:21:33.376Z,100283.00
2018-08-30T08:24:02.799Z,100285.00
2018-08-30T08:26:31.907Z,100289.00
2018-08-30T08:29:01.093Z,100293.00
2018-08-30T08:31:30.162Z,100289.00
2018-08-30T08:33:59.285Z,100297.00
2018-08-30T08:36:28.410Z,100293.00
2018-08-30T08:38:57.488Z,100296.00
2018-08-30T08:41:26.625Z,100297.00
2018-08-30T08:43:55.740Z,100296.00
2018-08-30T08:46:24.875Z,100296.00
2018-08-30T08:48:54.405Z,100298.00
2018-08-30T08:51:23.425Z,100293.00
2018-08-30T08:53:52.504Z,100296.00
2018-08-30T08:56:24.400Z,100300.00
2018-08-30T08:58:56.612Z,100295.00
2018-08-30T09:01:25.625Z,100302.00
2018-08-30T09:03:56.461Z,100301.00
2018-08-30T09:06:25.503Z,100302.00
2018-08-30T09:08:58.147Z,100299.00
2018-08-30T09:11:27.798Z,100296.00
2018-08-30T09:14:01.659Z,100295.00
2018-08-30T09:16:30.967Z,100302.00
2018-08-30T09:19:00.741Z,100303.00
2018-08-30T09:21:30.088Z,100305.00
2018-08-30T09:23:59.450Z,100305.00
2018-08-30T09:26:29.768Z,100309.00
2018-08-30T09:28:58.966Z,100309.00
2018-08-30T09:31:27.995Z,100317.00
2018-08-30T09:33:59.594Z,100313.00
2018-08-30T09:36:32.432Z,100319.00
2018-08-30T09:39:01.946Z,100318.00
2018-08-30T09:41:32.061Z,100315.00
2018-08-30T09:44:02.365Z,100313.00
2018-08-30T09:46:32.242Z,100320.00
2018-08-30T09:49:04.749Z,100316.00
2018-08-30T09:51:34.364Z,100310.00
2018-08-30T09:54:06.547Z,100318.00
2018-08-30T09:56:39.108Z,100320.00
2018-08-30T09:59:09.749Z,100316.00
2018-08-30T10:01:44.320Z,100321.00
2018-08-30T10:04:14.565Z,100319.00
2018-08-30T10:06:43.675Z,100319.00
2018-08-30T10:09:13.030Z,100322.00
2018-08-30T10:11:43.836Z,100317.00
2018-08-30T10:14:14.659Z,100316.00
2018-08-30T10:16:44.575Z,100321.00
2018-08-30T10:19:16.400Z,100314.00
2018-08-30T10:21:46.718Z,100316.00
2018-08-30T10:24:16.842Z,100322.00
2018-08-30T10:26:47.225Z,100322.00
2018-08-30T10:29:16.366Z,100321.00
2018-08-30T10:31:45.546Z,100328.00
2018-08-30T10:34:15.155Z,100316.00
2018-08-30T10:36:44.434Z,100325.00
2018-08-30T10:39:13.965Z,100327.00
2018-08-30T10:41:43.148Z,100323.00
2018-08-30T10:44:12.532Z,100321.00
2018-08-30T10:46:41.629Z,100320.00
2018-08-30T10:49:10.807Z,100326.00
2018-08-30T10:51:40.345Z,100326.00
2018-08-30T10:54:09.656Z,100328.00
2018-08-30T10:56:38.808Z,100332.00
2018-08-30T10:59:07.967Z,100328.00
2018-08-30T11:01:37.065Z,100323.00
2018-08-30T11:04:06.892Z,100327.00
2018-08-30T11:06:36.126Z,100335.00
2018-08-30T11:09:06.563Z,100337.00
2018-08-30T11:11:35.662Z,100323.00
2018-08-30T11:14:04.926Z,100329.00
2018-08-30T11:16:34.071Z,100329.00
2018-08-30T11:19:03.527Z,100323.00
2018-08-30T11:21:33.110Z,100320.00
2018-08-30T11:24:02.297Z,100324.00
2018-08-30T11:26:31.725Z,100328.00
2018-08-30T11:29:00.850Z,100327.00
2018-08-30T11:31:30.392Z,100331.00
2018-08-30T11:33:59.556Z,100328.00
2018-08-30T11:36:28.697Z,100329.00
2018-08-30T11:38:58.247Z,100326.00
2018-08-30T11:41:27.702Z,100327.00
2018-08-30T11:43:56.895Z,100324.00
2018-08-30T11:46:26.116Z,100327.00
2018-08-30T11:48:55.492Z,100332.00
2018-08-30T11:51:24.685Z,100331.00
2018-08-30T11:53:53.817Z,100328.00
2018-08-30T11:56:23.011Z,100332.00
2018-08-30T11:58:52.245Z,100333.00
2018-08-30T12:01:21.362Z,100343.00
2018-08-30T12:03:50.623Z,100340.00
2018-08-30T12:06:19.845Z,100341.00
2018-08-30T12:08:49.088Z,100333.00
2018-08-30T12:11:18.262Z,100344.00
2018-08-30T12:13:47.400Z,100337.00
2018-08-30T12:16:16.852Z,100341.00
2018-08-30T12:18:46.083Z,100344.00
2018-08-30T12:21:15.461Z,100343.00
2018-08-30T12:23:44.770Z,100340.00
2018-08-30T12:26:13.956Z,100341.00
2018-08-30T12:28:43.232Z,100333.00
2018-08-30T12:31:12.520Z,100338.00
2018-08-30T12:33:42.062Z,100334.00
2018-08-30T12:36:11.299Z,100331.00
2018-08-30T12:38:40.554Z,100337.00
2018-08-30T12:41:09.805Z,100340.00
2018-08-30T12:43:39.149Z,100342.00
2018-08-30T12:46:08.240Z,100334.00
2018-08-30T12:48:37.337Z,100337.00
2018-08-30T12:51:06.630Z,100331.00
2018-08-30T12:53:35.803Z,100329.00
2018-08-30T12:56:05.082Z,100332.00
2018-08-30T12:58:34.456Z,100331.00
2018-08-30T13:01:03.622Z,100334.00
2018-08-30T13:03:32.674Z,100334.00
2018-08-30T13:06:02.065Z,100330.00
2018-08-30T13:08:31.216Z,100333.00
2018-08-30T13:11:00.462Z,100327.00
2018-08-30T13:13:29.991Z,100329.00
2018-08-30T13:15:59.567Z,100327.00
2018-08-30T13:18:28.759Z,100326.00
2018-08-30T13:20:58.351Z,100332.00
2018-08-30T13:23:27.643Z,100332.00
2018-08-30T13:25:56.903Z,100336.00
2018-08-30T13:28:25.910Z,100336.00
2018-08-30T13:30:55.237Z,100335.00
2018-08-30T13:33:24.693Z,100342.00
2018-08-30T13:35:53.488Z,100333.00
2018-08-30T13:38:22.951Z,100337.00
2018-08-30T13:40:52.319Z,100335.00
2018-08-30T13:43:22.030Z,100333.00
2018-08-30T13:45:51.283Z,100340.00
2018-08-30T13:48:20.527Z,100334.00
2018-08-30T13:50:49.810Z,100339.00
2018-08-30T13:53:19.445Z,100338.00
2018-08-30T13:55:48.728Z,100335.00
2018-08-30T13:58:17.712Z,100333.00
2018-08-30T14:00:47.670Z,100339.00
2018-08-30T14:03:16.724Z,100341.00
2018-08-30T14:05:46.072Z,100334.00
2018-08-30T14:08:15.271Z,100334.00
2018-08-30T14:10:44.779Z,100329.00
2018-08-30T14:13:13.989Z,100330.00
2018-08-30T14:15:42.718Z,100328.00
2018-08-30T14:18:12.140Z,100323.00
2018-08-30T14:20:41.377Z,100331.00
2018-08-30T14:23:10.833Z,100334.00
2018-08-30T14:25:40.102Z,100339.00
2018-08-30T14:28:15.849Z,100334.00
2018-08-30T14:30:44.980Z,100337.00
2018-08-30T14:33:14.256Z,100340.00
2018-08-30T14:35:43.265Z,100328.00
2018-08-30T14:38:12.480Z,100335.00
2018-08-30T14:40:42.114Z,100338.00
2018-08-30T14:43:11.325Z,100328.00
2018-08-30T14:45:40.464Z,100343.00
2018-08-30T14:48:11.141Z,100337.00
2018-08-30T14:50:40.354Z,100342.00
2018-08-30T14:53:09.726Z,100337.00
2018-08-30T14:55:38.808Z,100317.00
2018-08-30T14:58:08.588Z,100336.00
2018-08-30T15:00:40.873Z,100333.00
2018-08-30T15:03:10.561Z,100335.00
2018-08-30T15:05:39.733Z,100338.00
2018-08-30T15:08:09.436Z,100336.00
2018-08-30T15:10:38.641Z,100341.00
2018-08-30T15:13:07.760Z,100338.00
2018-08-30T15:15:36.927Z,100338.00
2018-08-30T15:18:06.358Z,100332.00
2018-08-30T15:20:35.466Z,100335.00
2018-08-30T15:23:04.597Z,100338.00
2018-08-30T15:25:33.825Z,100339.00
2018-08-30T15:28:02.920Z,100342.00
2018-08-30T15:30:32.554Z,100343.00
2018-08-30T15:33:01.716Z,100340.00
2018-08-30T15:35:31.312Z,100340.00
2018-08-30T15:38:00.325Z,100344.00
2018-08-30T15:40:29.608Z,100347.00
2018-08-30T15:42:58.814Z,100346.00
2018-08-30T15:45:28.198Z,100344.00
2018-08-30T15:47:57.628Z,100346.00
2018-08-30T15:50:26.645Z,100350.00
2018-08-30T15:52:56.073Z,100342.00
2018-08-30T15:55:25.341Z,100349.00
2018-08-30T15:57:54.535Z,100347.00
2018-08-30T16:00:23.628Z,100350.00
2018-08-30T16:02:52.739Z,100348.00
2018-08-30T16:05:36.406Z,100344.00
2018-08-30T16:08:06.044Z,100335.00
2018-08-30T16:10:35.163Z,100343.00
2018-08-30T16:13:04.346Z,100342.00
2018-08-30T16:15:34.146Z,100344.00
2018-08-30T16:18:04.514Z,100341.00
2018-08-30T16:20:33.677Z,100341.00
2018-08-30T16:23:38.397Z,100336.00
2018-08-30T16:26:07.798Z,100331.00
2018-08-30T16:28:36.944Z,100330.00
2018-08-30T16:31:06.247Z,100333.00
2018-08-30T16:33:35.446Z,100331.00
2018-08-30T16:36:04.535Z,100333.00
2018-08-30T16:38:35.585Z,100333.00
2018-08-30T16:41:05.584Z,100340.00
2018-08-30T16:43:35.168Z,100340.00
2018-08-30T16:46:04.646Z,100335.00
2018-08-30T16:48:35.034Z,100339.00
2018-08-30T16:51:07.264Z,100337.00
2018-08-30T16:53:36.616Z,100332.00
2018-08-30T16:56:06.588Z,100340.00
2018-08-30T16:58:35.790Z,100333.00
2018-08-30T17:01:05.345Z,100338.00
2018-08-30T17:03:34.968Z,100332.00
2018-08-30T17:06:04.513Z,100331.00
2018-08-30T17:08:33.934Z,100332.00
2018-08-30T17:11:03.318Z,100328.00
2018-08-30T17:13:32.676Z,100334.00
2018-08-30T17:16:03.261Z,100327.00
2018-08-30T17:18:32.287Z,100322.00
2018-08-30T17:21:01.712Z,100323.00
2018-08-30T17:23:31.351Z,100325.00
2018-08-30T17:26:01.008Z,100324.00
2018-08-30T17:28:30.323Z,100324.00
2018-08-30T17:30:59.544Z,100316.00
2018-08-30T17:33:29.218Z,100319.00
2018-08-30T17:35:59.158Z,100322.00
2018-08-30T17:39:01.707Z,100322.00
2018-08-30T17:41:30.837Z,100320.00
2018-08-30T17:44:00.426Z,100321.00
2018-08-30T17:46:31.295Z,100323.00
2018-08-30T17:49:00.520Z,100324.00
2018-08-30T17:51:29.706Z,100320.00
2018-08-30T17:53:59.070Z,100325.00
2018-08-30T17:56:28.372Z,100323.00
2018-08-30T17:58:57.913Z,100326.00
2018-08-30T18:01:28.304Z,100328.00
2018-08-30T18:03:57.418Z,100330.00
2018-08-30T18:06:26.719Z,100329.00
2018-08-30T18:08:56.469Z,100338.00
2018-08-30T18:11:26.160Z,100331.00
2018-08-30T18:13:55.237Z,100341.00
2018-08-30T18:16:24.884Z,100342.00
2018-08-30T18:18:54.339Z,100349.00
2018-08-30T18:21:23.577Z,100351.00
2018-08-30T18:23:54.889Z,100349.00
2018-08-30T18:26:24.375Z,100354.00
2018-08-30T18:28:54.996Z,100354.00
2018-08-30T18:31:24.532Z,100360.00
2018-08-30T18:33:54.761Z,100360.00
2018-08-30T18:36:24.332Z,100367.00
2018-08-30T18:38:56.681Z,100370.00
2018-08-30T18:41:25.796Z,100372.00
2018-08-30T18:43:55.678Z,100379.00
2018-08-30T18:46:26.502Z,100381.00
2018-08-30T18:48:55.718Z,100379.00
2018-08-30T18:51:25.053Z,100377.00
2018-08-30T18:53:55.161Z,100383.00
2018-08-30T18:56:27.482Z,100381.00
2018-08-30T18:58:57.865Z,100389.00
2018-08-30T19:01:27.253Z,100389.00
2018-08-30T19:03:56.754Z,100390.00
2018-08-30T19:06:26.911Z,100394.00
2018-08-30T19:08:56.314Z,100395.00
2018-08-30T19:11:25.500Z,100399.00
2018-08-30T19:13:54.909Z,100399.00
2018-08-30T19:16:29.500Z,100396.00
2018-08-30T19:19:04.215Z,100397.00
2018-08-30T19:21:34.036Z,100404.00
2018-08-30T19:24:03.834Z,100399.00
2018-08-30T19:26:33.052Z,100405.00
2018-08-30T19:29:02.751Z,100404.00
2018-08-30T19:31:32.523Z,100404.00
2018-08-30T19:34:03.233Z,100408.00
2018-08-30T19:36:33.914Z,100406.00
2018-08-30T19:39:06.332Z,100401.00
2018-08-30T19:41:35.504Z,100404.00
2018-08-30T19:44:04.628Z,100405.00
2018-08-30T19:46:33.683Z,100413.00
2018-08-30T19:49:02.904Z,100413.00
2018-08-30T19:51:32.084Z,100411.00
2018-08-30T19:54:01.145Z,100411.00
2018-08-30T19:56:30.289Z,100409.00
2018-08-30T19:58:59.347Z,100412.00
2018-08-30T20:01:28.426Z,100411.00
2018-08-30T20:03:58.277Z,100405.00
2018-08-30T20:06:28.729Z,100406.00
2018-08-30T20:08:57.919Z,100403.00
2018-08-30T20:11:27.024Z,100407.00
2018-08-30T20:13:56.163Z,100411.00
2018-08-30T20:16:25.294Z,100413.00
2018-08-30T20:18:54.489Z,100411.00
2018-08-30T20:21:23.570Z,100414.00
2018-08-30T20:23:53.558Z,100414.00
2018-08-30T20:26:22.632Z,100415.00
2018-08-30T20:28:51.697Z,100416.00
2018-08-30T20:31:20.808Z,100412.00
2018-08-30T20:33:49.924Z,100414.00
2018-08-30T20:36:19.013Z,100413.00
2018-08-30T20:38:48.128Z,100415.00
2018-08-30T20:41:17.312Z,100423.00
2018-08-30T20:43:46.357Z,100422.00
2018-08-30T20:46:15.446Z,100422.00
2018-08-30T20:48:44.688Z,100427.00
2018-08-30T20:51:13.842Z,100425.00
2018-08-30T20:53:43.088Z,100432.00
2018-08-30T20:56:12.378Z,100427.00
2018-08-30T20:58:41.575Z,100423.00
2018-08-30T21:01:11.048Z,100425.00
2018-08-30T21:03:40.201Z,100421.00
2018-08-30T21:06:09.385Z,100428.00
2018-08-30T21:08:38.694Z,100429.00
2018-08-30T21:11:07.892Z,100428.00
2018-08-30T21:13:36.935Z,100426.00
2018-08-30T21:16:06.029Z,100423.00
2018-08-30T21:18:36.389Z,100426.00
2018-08-30T21:21:05.669Z,100429.00
2018-08-30T21:23:34.756Z,100427.00
2018-08-30T21:26:03.865Z,100429.00
2018-08-30T21:28:32.950Z,100429.00
2018-08-30T21:31:02.055Z,100430.00
2018-08-30T21:33:31.970Z,100431.00
2018-08-30T21:36:01.111Z,100428.00
2018-08-30T21:38:30.379Z,100431.00
2018-08-30T21:40:59.550Z,100426.00
2018-08-30T21:43:28.593Z,100430.00
2018-08-30T21:45:57.686Z,100433.00
2018-08-30T21:48:26.758Z,100432.00
2018-08-30T21:50:55.862Z,100427.00
2018-08-30T21:53:25.262Z,100434.00
2018-08-30T21:56:01.213Z,100435.00
2018-08-30T21:58:30.361Z,100434.00
2018-08-30T22:00:59.735Z,100429.00
2018-08-30T22:03:28.772Z,100433.00
2018-08-30T22:05:57.880Z,100431.00
2018-08-30T22:08:28.040Z,100429.00
2018-08-30T22:10:57.136Z,100435.00
2018-08-30T22:13:26.152Z,100435.00
2018-08-30T22:15:55.242Z,100433.00
2018-08-30T22:18:24.379Z,100436.00
2018-08-30T22:20:53.781Z,100446.00
2018-08-30T22:23:22.887Z,100448.00
2018-08-30T22:25:51.927Z,100446.00
2018-08-30T22:28:20.948Z,100444.00
2018-08-30T22:30:50.069Z,100450.00
2018-08-30T22:33:19.104Z,100450.00
2018-08-30T22:35:48.498Z,100450.00
2018-08-30T22:38:17.583Z,100447.00
2018-08-30T22:40:46.845Z,100454.00
2018-08-30T22:43:15.806Z,100454.00
2018-08-30T22:45:45.099Z,100458.00
2018-08-30T22:48:14.138Z,100452.00
2018-08-30T22:50:43.237Z,100446.00
2018-08-30T22:53:12.381Z,100448.00
2018-08-30T22:55:41.494Z,100447.00
2018-08-30T22:58:10.972Z,100448.00
2018-08-30T23:00:40.218Z,100443.00
2018-08-30T23:03:09.298Z,100444.00
2018-08-30T23:05:38.386Z,100444.00
2018-08-30T23:08:07.457Z,100446.00
2018-08-30T23:10:36.499Z,100445.00
2018-08-30T23:13:07.085Z,100448.00
2018-08-30T23:15:36.136Z,100439.00
2018-08-30T23:18:05.170Z,100445.00
2018-08-30T23:20:34.288Z,100440.00
2018-08-30T23:23:03.362Z,100441.00
2018-08-30T23:25:32.551Z,100441.00
2018-08-30T23:28:01.589Z,100441.00
2018-08-30T23:30:30.789Z,100440.00
2018-08-30T23:32:59.807Z,100442.00
2018-08-30T23:35:29.007Z,100441.00
2018-08-30T23:37:58.055Z,100441.00
2018-08-30T23:40:27.093Z,100445.00
2018-08-30T23:42:56.188Z,100440.00
2018-08-30T23:45:25.306Z,100443.00
2018-08-30T23:47:54.463Z,100440.00
2018-08-30T23:50:23.821Z,100433.00
2018-08-30T23:52:52.886Z,100437.00
2018-08-30T23:55:21.946Z,100427.00
2018-08-30T23:58:08.133Z,100424.00
